sensor_id;sensor_type;location;lat;lon;timestamp;P1;durP1;ratioP1;P2;durP2;ratioP2
37701;SDS011;23548;51.196;6.838;2024-02-21T00:00:49;35.28;;;12.30;;
37701;SDS011;23548;51.196;6.838;2024-02-21T00:03:15;29.15;;;11.90;;
37701;SDS011;23548;51.196;6.838;2024-02-21T00:05:40;29.67;;;12.90;;
37701;SDS011;23548;51.196;6.838;2024-02-21T00:08:06;23.65;;;11.05;;
37701;SDS011;23548;51.196;6.838;2024-02-21T00:10:32;29.55;;;11.57;;
37701;SDS011;23548;51.196;6.838;2024-02-21T00:12:58;42.15;;;12.55;;
37701;SDS011;23548;51.196;6.838;2024-02-21T00:15:26;33.15;;;12.18;;
37701;SDS011;23548;51.196;6.838;2024-02-21T00:17:52;26.83;;;11.45;;
37701;SDS011;23548;51.196;6.838;2024-02-21T00:20:18;24.95;;;10.80;;
37701;SDS011;23548;51.196;6.838;2024-02-21T00:22:45;30.02;;;11.98;;
37701;SDS011;23548;51.196;6.838;2024-02-21T00:25:11;24.17;;;11.60;;
37701;SDS011;23548;51.196;6.838;2024-02-21T00:27:37;31.00;;;11.30;;
37701;SDS011;23548;51.196;6.838;2024-02-21T00:30:04;29.55;;;11.68;;
37701;SDS011;23548;51.196;6.838;2024-02-21T00:32:30;32.38;;;11.82;;
37701;SDS011;23548;51.196;6.838;2024-02-21T00:34:57;29.48;;;10.85;;
37701;SDS011;23548;51.196;6.838;2024-02-21T00:37:23;31.52;;;11.20;;
37701;SDS011;23548;51.196;6.838;2024-02-21T00:39:48;30.90;;;12.20;;
37701;SDS011;23548;51.196;6.838;2024-02-21T00:42:14;26.40;;;10.90;;
37701;SDS011;23548;51.196;6.838;2024-02-21T00:44:40;28.15;;;11.88;;
37701;SDS011;23548;51.196;6.838;2024-02-21T00:47:05;36.63;;;12.60;;
37701;SDS011;23548;51.196;6.838;2024-02-21T00:49:31;31.40;;;11.10;;
37701;SDS011;23548;51.196;6.838;2024-02-21T00:51:57;31.75;;;12.38;;
37701;SDS011;23548;51.196;6.838;2024-02-21T00:54:23;24.30;;;10.98;;
37701;SDS011;23548;51.196;6.838;2024-02-21T00:56:48;29.38;;;11.88;;
37701;SDS011;23548;51.196;6.838;2024-02-21T00:59:14;29.75;;;12.13;;
37701;SDS011;23548;51.196;6.838;2024-02-21T01:01:40;30.30;;;12.85;;
37701;SDS011;23548;51.196;6.838;2024-02-21T01:04:09;28.95;;;11.90;;
37701;SDS011;23548;51.196;6.838;2024-02-21T01:06:35;27.08;;;11.43;;
37701;SDS011;23548;51.196;6.838;2024-02-21T01:09:00;31.38;;;12.48;;
37701;SDS011;23548;51.196;6.838;2024-02-21T01:11:26;27.45;;;11.93;;
37701;SDS011;23548;51.196;6.838;2024-02-21T01:13:52;28.10;;;12.63;;
37701;SDS011;23548;51.196;6.838;2024-02-21T01:16:18;29.70;;;12.35;;
37701;SDS011;23548;51.196;6.838;2024-02-21T01:18:44;35.83;;;12.32;;
37701;SDS011;23548;51.196;6.838;2024-02-21T01:21:10;29.52;;;12.15;;
37701;SDS011;23548;51.196;6.838;2024-02-21T01:23:36;34.42;;;12.43;;
37701;SDS011;23548;51.196;6.838;2024-02-21T01:26:02;30.35;;;12.57;;
37701;SDS011;23548;51.196;6.838;2024-02-21T01:28:28;28.45;;;11.00;;
37701;SDS011;23548;51.196;6.838;2024-02-21T01:30:55;27.88;;;11.70;;
37701;SDS011;23548;51.196;6.838;2024-02-21T01:33:21;38.58;;;11.90;;
37701;SDS011;23548;51.196;6.838;2024-02-21T01:35:47;32.58;;;12.35;;
37701;SDS011;23548;51.196;6.838;2024-02-21T01:38:14;30.02;;;12.52;;
37701;SDS011;23548;51.196;6.838;2024-02-21T01:40:39;30.42;;;11.93;;
37701;SDS011;23548;51.196;6.838;2024-02-21T01:43:14;34.20;;;12.98;;
37701;SDS011;23548;51.196;6.838;2024-02-21T01:45:49;32.50;;;12.75;;
37701;SDS011;23548;51.196;6.838;2024-02-21T01:48:18;25.35;;;12.23;;
37701;SDS011;23548;51.196;6.838;2024-02-21T01:50:44;30.50;;;13.43;;
37701;SDS011;23548;51.196;6.838;2024-02-21T01:53:24;31.55;;;11.75;;
37701;SDS011;23548;51.196;6.838;2024-02-21T01:55:54;28.15;;;11.90;;
37701;SDS011;23548;51.196;6.838;2024-02-21T01:58:20;30.08;;;11.30;;
37701;SDS011;23548;51.196;6.838;2024-02-21T02:00:48;31.98;;;11.70;;
37701;SDS011;23548;51.196;6.838;2024-02-21T02:03:15;29.73;;;12.10;;
37701;SDS011;23548;51.196;6.838;2024-02-21T02:05:47;29.05;;;11.75;;
37701;SDS011;23548;51.196;6.838;2024-02-21T02:08:16;30.67;;;11.32;;
37701;SDS011;23548;51.196;6.838;2024-02-21T02:10:43;23.55;;;10.93;;
37701;SDS011;23548;51.196;6.838;2024-02-21T02:13:10;31.90;;;11.30;;
37701;SDS011;23548;51.196;6.838;2024-02-21T02:15:39;26.83;;;11.02;;
37701;SDS011;23548;51.196;6.838;2024-02-21T02:18:05;24.63;;;9.95;;
37701;SDS011;23548;51.196;6.838;2024-02-21T02:20:31;24.83;;;11.50;;
37701;SDS011;23548;51.196;6.838;2024-02-21T02:22:58;27.98;;;11.13;;
37701;SDS011;23548;51.196;6.838;2024-02-21T02:25:26;23.67;;;11.63;;
37701;SDS011;23548;51.196;6.838;2024-02-21T02:27:51;33.75;;;11.23;;
37701;SDS011;23548;51.196;6.838;2024-02-21T02:30:18;26.20;;;11.07;;
37701;SDS011;23548;51.196;6.838;2024-02-21T02:32:44;29.98;;;12.05;;
37701;SDS011;23548;51.196;6.838;2024-02-21T02:35:13;24.42;;;11.32;;
37701;SDS011;23548;51.196;6.838;2024-02-21T02:37:39;25.88;;;11.18;;
37701;SDS011;23548;51.196;6.838;2024-02-21T02:40:06;23.90;;;10.30;;
37701;SDS011;23548;51.196;6.838;2024-02-21T02:42:32;31.42;;;10.82;;
37701;SDS011;23548;51.196;6.838;2024-02-21T02:44:58;27.48;;;11.18;;
37701;SDS011;23548;51.196;6.838;2024-02-21T02:47:23;29.55;;;11.13;;
37701;SDS011;23548;51.196;6.838;2024-02-21T02:49:49;22.33;;;10.88;;
37701;SDS011;23548;51.196;6.838;2024-02-21T02:55:37;32.00;;;11.35;;
37701;SDS011;23548;51.196;6.838;2024-02-21T02:58:03;27.73;;;10.75;;
37701;SDS011;23548;51.196;6.838;2024-02-21T03:00:29;27.50;;;10.68;;
37701;SDS011;23548;51.196;6.838;2024-02-21T03:02:54;23.83;;;10.40;;
37701;SDS011;23548;51.196;6.838;2024-02-21T03:05:20;27.17;;;10.68;;
37701;SDS011;23548;51.196;6.838;2024-02-21T03:07:47;29.20;;;11.90;;
37701;SDS011;23548;51.196;6.838;2024-02-21T03:10:14;28.98;;;10.90;;
37701;SDS011;23548;51.196;6.838;2024-02-21T03:12:41;29.05;;;10.73;;
37701;SDS011;23548;51.196;6.838;2024-02-21T03:15:07;24.17;;;11.20;;
37701;SDS011;23548;51.196;6.838;2024-02-21T03:17:34;32.47;;;11.55;;
37701;SDS011;23548;51.196;6.838;2024-02-21T03:20:00;21.90;;;10.63;;
37701;SDS011;23548;51.196;6.838;2024-02-21T03:22:30;29.38;;;11.25;;
37701;SDS011;23548;51.196;6.838;2024-02-21T03:24:57;30.10;;;10.57;;
37701;SDS011;23548;51.196;6.838;2024-02-21T03:27:23;30.83;;;10.18;;
37701;SDS011;23548;51.196;6.838;2024-02-21T03:29:49;25.10;;;9.95;;
37701;SDS011;23548;51.196;6.838;2024-02-21T03:32:14;25.25;;;10.20;;
37701;SDS011;23548;51.196;6.838;2024-02-21T03:34:40;23.05;;;9.45;;
37701;SDS011;23548;51.196;6.838;2024-02-21T03:37:05;29.67;;;9.85;;
37701;SDS011;23548;51.196;6.838;2024-02-21T03:39:31;24.58;;;9.60;;
37701;SDS011;23548;51.196;6.838;2024-02-21T03:41:57;26.65;;;9.52;;
37701;SDS011;23548;51.196;6.838;2024-02-21T03:44:26;23.90;;;10.23;;
37701;SDS011;23548;51.196;6.838;2024-02-21T03:46:52;20.38;;;9.18;;
37701;SDS011;23548;51.196;6.838;2024-02-21T03:49:18;20.60;;;8.40;;
37701;SDS011;23548;51.196;6.838;2024-02-21T03:51:44;24.90;;;10.57;;
37701;SDS011;23548;51.196;6.838;2024-02-21T03:54:09;25.88;;;10.60;;
37701;SDS011;23548;51.196;6.838;2024-02-21T03:56:38;24.23;;;9.50;;
37701;SDS011;23548;51.196;6.838;2024-02-21T03:59:07;26.40;;;10.50;;
37701;SDS011;23548;51.196;6.838;2024-02-21T04:01:33;25.80;;;9.95;;
37701;SDS011;23548;51.196;6.838;2024-02-21T04:04:00;25.70;;;11.20;;
37701;SDS011;23548;51.196;6.838;2024-02-21T04:06:26;22.00;;;8.98;;
37701;SDS011;23548;51.196;6.838;2024-02-21T04:08:51;28.40;;;9.75;;
37701;SDS011;23548;51.196;6.838;2024-02-21T04:11:17;24.27;;;8.90;;
37701;SDS011;23548;51.196;6.838;2024-02-21T04:13:44;22.77;;;10.13;;
37701;SDS011;23548;51.196;6.838;2024-02-21T04:16:15;21.83;;;9.27;;
37701;SDS011;23548;51.196;6.838;2024-02-21T04:18:41;18.27;;;8.98;;
37701;SDS011;23548;51.196;6.838;2024-02-21T04:21:07;27.50;;;10.00;;
37701;SDS011;23548;51.196;6.838;2024-02-21T04:23:33;25.95;;;9.35;;
37701;SDS011;23548;51.196;6.838;2024-02-21T04:25:59;27.15;;;9.20;;
37701;SDS011;23548;51.196;6.838;2024-02-21T04:28:24;22.17;;;8.60;;
37701;SDS011;23548;51.196;6.838;2024-02-21T04:30:50;20.48;;;8.40;;
37701;SDS011;23548;51.196;6.838;2024-02-21T04:33:16;21.35;;;9.15;;
37701;SDS011;23548;51.196;6.838;2024-02-21T04:35:41;21.70;;;9.45;;
37701;SDS011;23548;51.196;6.838;2024-02-21T04:38:07;29.90;;;9.35;;
37701;SDS011;23548;51.196;6.838;2024-02-21T04:40:33;27.95;;;9.25;;
37701;SDS011;23548;51.196;6.838;2024-02-21T04:42:59;24.58;;;8.85;;
37701;SDS011;23548;51.196;6.838;2024-02-21T04:45:25;25.90;;;8.98;;
37701;SDS011;23548;51.196;6.838;2024-02-21T04:47:50;23.00;;;9.35;;
37701;SDS011;23548;51.196;6.838;2024-02-21T04:50:16;22.67;;;9.25;;
37701;SDS011;23548;51.196;6.838;2024-02-21T04:52:42;19.15;;;8.70;;
37701;SDS011;23548;51.196;6.838;2024-02-21T04:55:08;20.90;;;8.60;;
37701;SDS011;23548;51.196;6.838;2024-02-21T04:57:34;19.88;;;8.93;;
37701;SDS011;23548;51.196;6.838;2024-02-21T05:00:00;21.88;;;8.18;;
37701;SDS011;23548;51.196;6.838;2024-02-21T05:02:25;19.98;;;8.23;;
37701;SDS011;23548;51.196;6.838;2024-02-21T05:04:52;16.40;;;7.97;;
37701;SDS011;23548;51.196;6.838;2024-02-21T05:07:18;23.58;;;8.75;;
37701;SDS011;23548;51.196;6.838;2024-02-21T05:09:44;21.83;;;8.38;;
37701;SDS011;23548;51.196;6.838;2024-02-21T05:12:10;25.30;;;8.75;;
37701;SDS011;23548;51.196;6.838;2024-02-21T05:14:36;21.70;;;8.52;;
37701;SDS011;23548;51.196;6.838;2024-02-21T05:17:02;19.98;;;8.40;;
37701;SDS011;23548;51.196;6.838;2024-02-21T05:19:29;19.10;;;8.30;;
37701;SDS011;23548;51.196;6.838;2024-02-21T05:21:55;15.95;;;8.00;;
37701;SDS011;23548;51.196;6.838;2024-02-21T05:24:21;20.92;;;7.97;;
37701;SDS011;23548;51.196;6.838;2024-02-21T05:26:46;17.23;;;8.32;;
37701;SDS011;23548;51.196;6.838;2024-02-21T05:29:12;21.42;;;8.27;;
37701;SDS011;23548;51.196;6.838;2024-02-21T05:34:19;24.77;;;9.00;;
37701;SDS011;23548;51.196;6.838;2024-02-21T05:36:45;22.20;;;8.90;;
37701;SDS011;23548;51.196;6.838;2024-02-21T05:39:11;18.67;;;8.27;;
37701;SDS011;23548;51.196;6.838;2024-02-21T05:41:38;16.20;;;8.10;;
37701;SDS011;23548;51.196;6.838;2024-02-21T05:44:04;18.77;;;8.40;;
37701;SDS011;23548;51.196;6.838;2024-02-21T05:46:29;24.20;;;7.85;;
37701;SDS011;23548;51.196;6.838;2024-02-21T05:48:55;18.98;;;8.32;;
37701;SDS011;23548;51.196;6.838;2024-02-21T05:51:21;15.48;;;7.82;;
37701;SDS011;23548;51.196;6.838;2024-02-21T05:53:46;20.75;;;7.55;;
37701;SDS011;23548;51.196;6.838;2024-02-21T05:56:13;19.70;;;7.40;;
37701;SDS011;23548;51.196;6.838;2024-02-21T05:58:39;19.52;;;8.25;;
37701;SDS011;23548;51.196;6.838;2024-02-21T06:01:05;16.65;;;7.90;;
37701;SDS011;23548;51.196;6.838;2024-02-21T06:03:34;17.02;;;8.00;;
37701;SDS011;23548;51.196;6.838;2024-02-21T06:06:01;21.67;;;7.85;;
37701;SDS011;23548;51.196;6.838;2024-02-21T06:08:27;19.33;;;7.78;;
37701;SDS011;23548;51.196;6.838;2024-02-21T06:10:52;18.38;;;7.47;;
37701;SDS011;23548;51.196;6.838;2024-02-21T06:13:20;17.75;;;7.55;;
37701;SDS011;23548;51.196;6.838;2024-02-21T06:15:48;19.42;;;7.18;;
37701;SDS011;23548;51.196;6.838;2024-02-21T06:18:15;18.77;;;7.68;;
37701;SDS011;23548;51.196;6.838;2024-02-21T06:20:44;19.80;;;7.85;;
37701;SDS011;23548;51.196;6.838;2024-02-21T06:23:11;18.02;;;7.25;;
37701;SDS011;23548;51.196;6.838;2024-02-21T06:25:37;23.13;;;7.50;;
37701;SDS011;23548;51.196;6.838;2024-02-21T06:28:04;17.73;;;7.57;;
37701;SDS011;23548;51.196;6.838;2024-02-21T06:30:30;17.50;;;7.18;;
37701;SDS011;23548;51.196;6.838;2024-02-21T06:32:56;19.67;;;7.68;;
37701;SDS011;23548;51.196;6.838;2024-02-21T06:35:22;15.93;;;7.57;;
37701;SDS011;23548;51.196;6.838;2024-02-21T06:37:51;20.02;;;7.55;;
37701;SDS011;23548;51.196;6.838;2024-02-21T06:40:17;15.02;;;6.85;;
37701;SDS011;23548;51.196;6.838;2024-02-21T06:42:44;18.85;;;7.63;;
37701;SDS011;23548;51.196;6.838;2024-02-21T06:45:10;18.67;;;7.88;;
37701;SDS011;23548;51.196;6.838;2024-02-21T06:47:36;14.77;;;7.10;;
37701;SDS011;23548;51.196;6.838;2024-02-21T06:50:02;22.60;;;8.00;;
37701;SDS011;23548;51.196;6.838;2024-02-21T06:52:28;18.15;;;7.20;;
37701;SDS011;23548;51.196;6.838;2024-02-21T06:54:54;18.98;;;7.25;;
37701;SDS011;23548;51.196;6.838;2024-02-21T06:57:19;21.52;;;8.50;;
37701;SDS011;23548;51.196;6.838;2024-02-21T06:59:45;21.50;;;7.32;;
37701;SDS011;23548;51.196;6.838;2024-02-21T07:02:11;17.90;;;7.13;;
37701;SDS011;23548;51.196;6.838;2024-02-21T07:04:36;19.60;;;8.02;;
37701;SDS011;23548;51.196;6.838;2024-02-21T07:07:02;14.93;;;7.68;;
37701;SDS011;23548;51.196;6.838;2024-02-21T07:09:29;18.25;;;7.03;;
37701;SDS011;23548;51.196;6.838;2024-02-21T07:11:57;16.90;;;6.90;;
37701;SDS011;23548;51.196;6.838;2024-02-21T07:14:25;16.63;;;6.65;;
37701;SDS011;23548;51.196;6.838;2024-02-21T07:16:53;16.42;;;6.43;;
37701;SDS011;23548;51.196;6.838;2024-02-21T07:19:19;11.27;;;5.82;;
37701;SDS011;23548;51.196;6.838;2024-02-21T07:21:45;14.43;;;6.40;;
37701;SDS011;23548;51.196;6.838;2024-02-21T07:24:11;20.30;;;6.65;;
37701;SDS011;23548;51.196;6.838;2024-02-21T07:26:37;16.08;;;6.40;;
37701;SDS011;23548;51.196;6.838;2024-02-21T07:29:06;17.33;;;6.72;;
37701;SDS011;23548;51.196;6.838;2024-02-21T07:31:37;19.15;;;6.15;;
37701;SDS011;23548;51.196;6.838;2024-02-21T07:34:07;12.57;;;6.03;;
37701;SDS011;23548;51.196;6.838;2024-02-21T07:36:33;10.93;;;5.20;;
37701;SDS011;23548;51.196;6.838;2024-02-21T07:38:59;15.93;;;5.20;;
37701;SDS011;23548;51.196;6.838;2024-02-21T07:41:25;14.48;;;5.40;;
37701;SDS011;23548;51.196;6.838;2024-02-21T07:43:51;17.35;;;5.95;;
37701;SDS011;23548;51.196;6.838;2024-02-21T07:46:20;13.63;;;5.30;;
37701;SDS011;23548;51.196;6.838;2024-02-21T07:48:46;14.10;;;5.63;;
37701;SDS011;23548;51.196;6.838;2024-02-21T07:51:12;14.95;;;5.80;;
37701;SDS011;23548;51.196;6.838;2024-02-21T07:53:38;20.13;;;6.28;;
37701;SDS011;23548;51.196;6.838;2024-02-21T07:56:09;12.45;;;5.70;;
37701;SDS011;23548;51.196;6.838;2024-02-21T07:58:38;17.65;;;5.22;;
37701;SDS011;23548;51.196;6.838;2024-02-21T08:01:07;17.45;;;5.45;;
37701;SDS011;23548;51.196;6.838;2024-02-21T08:03:33;14.15;;;6.03;;
37701;SDS011;23548;51.196;6.838;2024-02-21T08:05:59;18.48;;;6.18;;
37701;SDS011;23548;51.196;6.838;2024-02-21T08:08:25;14.90;;;5.43;;
37701;SDS011;23548;51.196;6.838;2024-02-21T08:10:52;14.63;;;5.25;;
37701;SDS011;23548;51.196;6.838;2024-02-21T08:13:18;19.90;;;5.95;;
37701;SDS011;23548;51.196;6.838;2024-02-21T08:15:44;18.58;;;6.70;;
37701;SDS011;23548;51.196;6.838;2024-02-21T08:18:09;18.13;;;6.32;;
37701;SDS011;23548;51.196;6.838;2024-02-21T08:20:35;18.00;;;5.65;;
37701;SDS011;23548;51.196;6.838;2024-02-21T08:23:01;14.23;;;5.95;;
37701;SDS011;23548;51.196;6.838;2024-02-21T08:25:27;21.50;;;6.65;;
37701;SDS011;23548;51.196;6.838;2024-02-21T08:27:57;20.45;;;6.10;;
37701;SDS011;23548;51.196;6.838;2024-02-21T08:30:23;20.02;;;6.38;;
37701;SDS011;23548;51.196;6.838;2024-02-21T08:32:49;16.70;;;6.20;;
37701;SDS011;23548;51.196;6.838;2024-02-21T08:35:15;17.92;;;6.53;;
37701;SDS011;23548;51.196;6.838;2024-02-21T08:37:43;15.75;;;6.63;;
37701;SDS011;23548;51.196;6.838;2024-02-21T08:40:09;24.15;;;6.18;;
37701;SDS011;23548;51.196;6.838;2024-02-21T08:42:36;21.13;;;6.32;;
37701;SDS011;23548;51.196;6.838;2024-02-21T08:45:04;21.42;;;6.43;;
37701;SDS011;23548;51.196;6.838;2024-02-21T08:47:30;17.38;;;6.18;;
37701;SDS011;23548;51.196;6.838;2024-02-21T08:49:56;24.55;;;6.15;;
37701;SDS011;23548;51.196;6.838;2024-02-21T08:52:21;16.27;;;6.25;;
37701;SDS011;23548;51.196;6.838;2024-02-21T08:54:47;16.05;;;6.13;;
37701;SDS011;23548;51.196;6.838;2024-02-21T08:57:13;18.20;;;6.97;;
37701;SDS011;23548;51.196;6.838;2024-02-21T08:59:39;19.10;;;6.28;;
37701;SDS011;23548;51.196;6.838;2024-02-21T09:02:05;21.48;;;6.63;;
37701;SDS011;23548;51.196;6.838;2024-02-21T09:04:32;21.58;;;7.13;;
37701;SDS011;23548;51.196;6.838;2024-02-21T09:06:58;18.80;;;7.18;;
37701;SDS011;23548;51.196;6.838;2024-02-21T09:09:24;25.67;;;10.18;;
37701;SDS011;23548;51.196;6.838;2024-02-21T09:11:50;21.30;;;7.00;;
37701;SDS011;23548;51.196;6.838;2024-02-21T09:14:17;23.38;;;7.10;;
37701;SDS011;23548;51.196;6.838;2024-02-21T09:16:43;21.75;;;6.97;;
37701;SDS011;23548;51.196;6.838;2024-02-21T09:19:09;22.63;;;7.60;;
37701;SDS011;23548;51.196;6.838;2024-02-21T09:21:36;22.95;;;7.00;;
37701;SDS011;23548;51.196;6.838;2024-02-21T09:24:03;20.13;;;6.20;;
37701;SDS011;23548;51.196;6.838;2024-02-21T09:26:30;17.42;;;6.88;;
37701;SDS011;23548;51.196;6.838;2024-02-21T09:28:56;19.83;;;6.60;;
37701;SDS011;23548;51.196;6.838;2024-02-21T09:31:22;14.52;;;6.18;;
37701;SDS011;23548;51.196;6.838;2024-02-21T09:33:47;20.00;;;7.07;;
37701;SDS011;23548;51.196;6.838;2024-02-21T09:36:14;16.63;;;6.28;;
37701;SDS011;23548;51.196;6.838;2024-02-21T09:38:40;22.25;;;6.85;;
37701;SDS011;23548;51.196;6.838;2024-02-21T09:43:50;16.50;;;6.50;;
37701;SDS011;23548;51.196;6.838;2024-02-21T09:46:21;16.98;;;7.07;;
37701;SDS011;23548;51.196;6.838;2024-02-21T09:51:53;16.63;;;6.55;;
37701;SDS011;23548;51.196;6.838;2024-02-21T09:54:20;20.63;;;7.30;;
37701;SDS011;23548;51.196;6.838;2024-02-21T09:56:47;16.60;;;7.43;;
37701;SDS011;23548;51.196;6.838;2024-02-21T09:59:16;23.75;;;8.90;;
37701;SDS011;23548;51.196;6.838;2024-02-21T10:01:42;19.58;;;7.53;;
37701;SDS011;23548;51.196;6.838;2024-02-21T10:04:09;17.23;;;7.40;;
37701;SDS011;23548;51.196;6.838;2024-02-21T10:06:35;18.95;;;6.95;;
37701;SDS011;23548;51.196;6.838;2024-02-21T10:09:02;15.35;;;6.68;;
37701;SDS011;23548;51.196;6.838;2024-02-21T10:11:28;13.07;;;6.50;;
37701;SDS011;23548;51.196;6.838;2024-02-21T10:14:07;13.65;;;6.47;;
37701;SDS011;23548;51.196;6.838;2024-02-21T10:16:33;12.40;;;5.82;;
37701;SDS011;23548;51.196;6.838;2024-02-21T10:18:59;9.60;;;5.13;;
37701;SDS011;23548;51.196;6.838;2024-02-21T10:21:26;13.38;;;5.13;;
37701;SDS011;23548;51.196;6.838;2024-02-21T10:23:51;10.75;;;4.85;;
37701;SDS011;23548;51.196;6.838;2024-02-21T10:26:18;11.90;;;4.85;;
37701;SDS011;23548;51.196;6.838;2024-02-21T10:28:45;13.60;;;5.13;;
37701;SDS011;23548;51.196;6.838;2024-02-21T10:31:20;13.13;;;4.45;;
37701;SDS011;23548;51.196;6.838;2024-02-21T10:33:58;13.65;;;5.13;;
37701;SDS011;23548;51.196;6.838;2024-02-21T10:36:28;11.73;;;4.68;;
37701;SDS011;23548;51.196;6.838;2024-02-21T10:38:54;13.70;;;4.55;;
37701;SDS011;23548;51.196;6.838;2024-02-21T10:41:21;11.02;;;4.43;;
37701;SDS011;23548;51.196;6.838;2024-02-21T10:43:51;12.93;;;4.65;;
37701;SDS011;23548;51.196;6.838;2024-02-21T10:46:21;9.57;;;4.75;;
37701;SDS011;23548;51.196;6.838;2024-02-21T10:48:48;13.38;;;5.15;;
37701;SDS011;23548;51.196;6.838;2024-02-21T10:51:29;12.60;;;5.30;;
37701;SDS011;23548;51.196;6.838;2024-02-21T10:54:11;15.60;;;5.05;;
37701;SDS011;23548;51.196;6.838;2024-02-21T10:56:49;12.05;;;5.45;;
37701;SDS011;23548;51.196;6.838;2024-02-21T10:59:16;11.68;;;4.55;;
37701;SDS011;23548;51.196;6.838;2024-02-21T11:01:43;9.40;;;5.20;;
37701;SDS011;23548;51.196;6.838;2024-02-21T11:04:09;12.90;;;5.40;;
37701;SDS011;23548;51.196;6.838;2024-02-21T11:06:37;10.55;;;4.88;;
37701;SDS011;23548;51.196;6.838;2024-02-21T11:11:44;15.23;;;4.82;;
37701;SDS011;23548;51.196;6.838;2024-02-21T11:14:20;8.55;;;4.40;;
37701;SDS011;23548;51.196;6.838;2024-02-21T11:16:46;11.32;;;5.00;;
37701;SDS011;23548;51.196;6.838;2024-02-21T11:19:22;13.15;;;5.35;;
37701;SDS011;23548;51.196;6.838;2024-02-21T11:21:50;11.98;;;4.40;;
37701;SDS011;23548;51.196;6.838;2024-02-21T11:24:29;14.18;;;4.60;;
37701;SDS011;23548;51.196;6.838;2024-02-21T11:26:56;14.48;;;4.97;;
37701;SDS011;23548;51.196;6.838;2024-02-21T11:29:44;11.40;;;4.43;;
37701;SDS011;23548;51.196;6.838;2024-02-21T11:32:11;11.80;;;4.95;;
37701;SDS011;23548;51.196;6.838;2024-02-21T11:34:41;12.00;;;4.50;;
37701;SDS011;23548;51.196;6.838;2024-02-21T11:37:17;14.15;;;4.72;;
37701;SDS011;23548;51.196;6.838;2024-02-21T11:39:43;10.45;;;4.60;;
37701;SDS011;23548;51.196;6.838;2024-02-21T11:42:09;13.93;;;4.43;;
37701;SDS011;23548;51.196;6.838;2024-02-21T11:44:36;10.80;;;4.55;;
37701;SDS011;23548;51.196;6.838;2024-02-21T11:47:05;12.70;;;4.60;;
37701;SDS011;23548;51.196;6.838;2024-02-21T11:49:35;11.50;;;4.13;;
37701;SDS011;23548;51.196;6.838;2024-02-21T11:52:10;12.25;;;3.97;;
37701;SDS011;23548;51.196;6.838;2024-02-21T11:54:36;11.98;;;4.05;;
37701;SDS011;23548;51.196;6.838;2024-02-21T11:57:02;10.20;;;4.57;;
37701;SDS011;23548;51.196;6.838;2024-02-21T11:59:31;16.45;;;4.30;;
37701;SDS011;23548;51.196;6.838;2024-02-21T12:01:58;18.75;;;4.05;;
37701;SDS011;23548;51.196;6.838;2024-02-21T12:04:25;12.38;;;3.83;;
37701;SDS011;23548;51.196;6.838;2024-02-21T12:06:51;10.38;;;3.60;;
37701;SDS011;23548;51.196;6.838;2024-02-21T12:09:19;13.65;;;4.03;;
37701;SDS011;23548;51.196;6.838;2024-02-21T12:11:45;10.23;;;3.40;;
37701;SDS011;23548;51.196;6.838;2024-02-21T12:14:11;8.38;;;3.60;;
37701;SDS011;23548;51.196;6.838;2024-02-21T12:16:41;11.50;;;4.05;;
37701;SDS011;23548;51.196;6.838;2024-02-21T12:19:09;10.10;;;3.60;;
37701;SDS011;23548;51.196;6.838;2024-02-21T12:21:35;13.13;;;4.60;;
37701;SDS011;23548;51.196;6.838;2024-02-21T12:26:49;11.82;;;4.35;;
37701;SDS011;23548;51.196;6.838;2024-02-21T12:29:19;11.48;;;3.95;;
37701;SDS011;23548;51.196;6.838;2024-02-21T12:31:45;9.38;;;3.95;;
37701;SDS011;23548;51.196;6.838;2024-02-21T12:34:11;8.80;;;3.25;;
37701;SDS011;23548;51.196;6.838;2024-02-21T12:36:44;12.93;;;3.97;;
37701;SDS011;23548;51.196;6.838;2024-02-21T12:39:12;10.18;;;3.80;;
37701;SDS011;23548;51.196;6.838;2024-02-21T12:41:38;15.07;;;4.18;;
37701;SDS011;23548;51.196;6.838;2024-02-21T12:44:05;9.68;;;3.55;;
37701;SDS011;23548;51.196;6.838;2024-02-21T12:46:35;8.73;;;3.55;;
37701;SDS011;23548;51.196;6.838;2024-02-21T12:49:01;12.02;;;4.07;;
37701;SDS011;23548;51.196;6.838;2024-02-21T12:51:27;9.60;;;3.95;;
37701;SDS011;23548;51.196;6.838;2024-02-21T12:53:54;9.70;;;3.58;;
37701;SDS011;23548;51.196;6.838;2024-02-21T12:56:20;11.18;;;3.80;;
37701;SDS011;23548;51.196;6.838;2024-02-21T12:58:46;13.27;;;4.13;;
37701;SDS011;23548;51.196;6.838;2024-02-21T13:01:12;12.23;;;3.85;;
37701;SDS011;23548;51.196;6.838;2024-02-21T13:03:38;9.80;;;3.90;;
37701;SDS011;23548;51.196;6.838;2024-02-21T13:06:04;11.55;;;3.80;;
37701;SDS011;23548;51.196;6.838;2024-02-21T13:08:30;13.00;;;3.80;;
37701;SDS011;23548;51.196;6.838;2024-02-21T13:10:56;12.27;;;3.83;;
37701;SDS011;23548;51.196;6.838;2024-02-21T13:13:22;18.38;;;4.13;;
37701;SDS011;23548;51.196;6.838;2024-02-21T13:15:47;14.38;;;4.00;;
37701;SDS011;23548;51.196;6.838;2024-02-21T13:18:13;11.20;;;3.80;;
37701;SDS011;23548;51.196;6.838;2024-02-21T13:20:39;10.65;;;3.90;;
37701;SDS011;23548;51.196;6.838;2024-02-21T13:23:04;11.18;;;3.88;;
37701;SDS011;23548;51.196;6.838;2024-02-21T13:25:30;10.13;;;3.50;;
37701;SDS011;23548;51.196;6.838;2024-02-21T13:27:56;12.45;;;3.85;;
37701;SDS011;23548;51.196;6.838;2024-02-21T13:30:22;10.75;;;4.10;;
37701;SDS011;23548;51.196;6.838;2024-02-21T13:32:48;9.07;;;3.67;;
37701;SDS011;23548;51.196;6.838;2024-02-21T13:35:13;7.75;;;3.63;;
37701;SDS011;23548;51.196;6.838;2024-02-21T13:37:40;10.32;;;3.72;;
37701;SDS011;23548;51.196;6.838;2024-02-21T13:40:06;9.82;;;3.85;;
37701;SDS011;23548;51.196;6.838;2024-02-21T13:42:36;13.23;;;4.22;;
37701;SDS011;23548;51.196;6.838;2024-02-21T13:45:03;10.73;;;4.05;;
37701;SDS011;23548;51.196;6.838;2024-02-21T13:47:35;11.55;;;4.10;;
37701;SDS011;23548;51.196;6.838;2024-02-21T13:50:04;9.35;;;4.10;;
37701;SDS011;23548;51.196;6.838;2024-02-21T13:52:34;15.00;;;3.88;;
37701;SDS011;23548;51.196;6.838;2024-02-21T13:54:59;10.18;;;4.07;;
37701;SDS011;23548;51.196;6.838;2024-02-21T13:57:25;9.82;;;4.28;;
37701;SDS011;23548;51.196;6.838;2024-02-21T13:59:51;8.55;;;4.30;;
37701;SDS011;23548;51.196;6.838;2024-02-21T14:02:17;9.73;;;3.67;;
37701;SDS011;23548;51.196;6.838;2024-02-21T14:04:43;11.73;;;4.13;;
37701;SDS011;23548;51.196;6.838;2024-02-21T14:07:09;9.25;;;3.72;;
37701;SDS011;23548;51.196;6.838;2024-02-21T14:09:35;14.23;;;4.78;;
37701;SDS011;23548;51.196;6.838;2024-02-21T14:12:01;10.52;;;4.13;;
37701;SDS011;23548;51.196;6.838;2024-02-21T14:14:27;10.02;;;4.18;;
37701;SDS011;23548;51.196;6.838;2024-02-21T14:16:52;10.27;;;4.03;;
37701;SDS011;23548;51.196;6.838;2024-02-21T14:19:18;9.20;;;3.67;;
37701;SDS011;23548;51.196;6.838;2024-02-21T14:21:44;11.73;;;3.67;;
37701;SDS011;23548;51.196;6.838;2024-02-21T14:24:10;9.32;;;3.75;;
37701;SDS011;23548;51.196;6.838;2024-02-21T14:26:37;13.38;;;4.20;;
37701;SDS011;23548;51.196;6.838;2024-02-21T14:29:06;8.65;;;3.92;;
37701;SDS011;23548;51.196;6.838;2024-02-21T14:31:32;10.68;;;4.38;;
37701;SDS011;23548;51.196;6.838;2024-02-21T14:33:57;10.43;;;4.07;;
37701;SDS011;23548;51.196;6.838;2024-02-21T14:36:23;11.65;;;3.75;;
37701;SDS011;23548;51.196;6.838;2024-02-21T14:38:49;10.20;;;4.00;;
37701;SDS011;23548;51.196;6.838;2024-02-21T14:41:16;14.43;;;4.20;;
37701;SDS011;23548;51.196;6.838;2024-02-21T14:43:42;10.65;;;3.70;;
37701;SDS011;23548;51.196;6.838;2024-02-21T14:46:08;9.02;;;3.45;;